createdAt,value
2018-02-05T00:00:34.674Z,1.88
2018-02-05T00:03:02.997Z,1.83
2018-02-05T00:05:31.350Z,1.97
2018-02-05T00:07:59.673Z,1.93
2018-02-05T00:10:28.018Z,1.89
2018-02-05T00:12:56.340Z,2.08
2018-02-05T00:15:24.685Z,2.06
2018-02-05T00:17:53.024Z,1.98
2018-02-05T00:20:21.370Z,2.02
2018-02-05T00:22:49.702Z,1.95
2018-02-05T00:25:18.054Z,2.04
2018-02-05T00:27:46.374Z,2.06
2018-02-05T00:30:14.718Z,2.07
2018-02-05T00:32:43.043Z,2.02
2018-02-05T00:35:11.394Z,1.97
2018-02-05T00:37:39.718Z,1.96
2018-02-05T00:40:08.062Z,1.86
2018-02-05T00:42:36.386Z,1.91
2018-02-05T00:45:04.734Z,1.94
2018-02-05T00:47:33.057Z,2.00
2018-02-05T00:50:01.403Z,1.96
2018-02-05T00:52:29.726Z,1.98
2018-02-05T00:54:58.073Z,1.93
2018-02-05T00:57:26.394Z,1.96
2018-02-05T00:59:54.737Z,1.94
2018-02-05T01:02:23.066Z,1.88
2018-02-05T01:04:51.406Z,1.97
2018-02-05T01:07:19.730Z,1.93
2018-02-05T01:09:48.078Z,1.91
2018-02-05T01:12:16.406Z,1.88
2018-02-05T01:14:44.750Z,1.83
2018-02-05T01:17:13.074Z,1.87
2018-02-05T01:19:41.417Z,1.95
2018-02-05T01:22:09.741Z,1.97
2018-02-05T01:24:38.085Z,1.89
2018-02-05T01:27:06.409Z,1.98
2018-02-05T01:29:34.754Z,2.06
2018-02-05T01:32:03.078Z,2.09
2018-02-05T01:34:31.421Z,2.08
2018-02-05T01:36:59.754Z,2.16
2018-02-05T01:39:28.102Z,2.12
2018-02-05T01:41:56.433Z,2.04
2018-02-05T01:44:24.757Z,2.14
2018-02-05T01:46:53.101Z,2.03
2018-02-05T01:49:21.425Z,2.21
2018-02-05T01:51:49.774Z,2.11
2018-02-05T01:54:18.098Z,2.22
2018-02-05T01:56:46.445Z,2.26
2018-02-05T01:59:14.769Z,2.09
2018-02-05T02:01:43.117Z,2.06
2018-02-05T02:04:11.437Z,2.09
2018-02-05T02:06:39.782Z,2.23
2018-02-05T02:09:08.113Z,2.18
2018-02-05T02:11:36.451Z,2.10
2018-02-05T02:14:04.773Z,2.26
2018-02-05T02:16:33.117Z,2.16
2018-02-05T02:19:01.441Z,2.19
2018-02-05T02:21:29.785Z,2.03
2018-02-05T02:23:58.109Z,2.00
2018-02-05T02:26:26.458Z,2.03
2018-02-05T02:28:54.781Z,2.01
2018-02-05T02:31:23.125Z,2.05
2018-02-05T02:33:51.449Z,1.96
2018-02-05T02:36:19.798Z,1.98
2018-02-05T02:38:48.121Z,1.98
2018-02-05T02:41:16.461Z,1.92
2018-02-05T02:43:44.785Z,1.93
2018-02-05T02:46:13.128Z,1.99
2018-02-05T02:48:41.453Z,1.96
2018-02-05T02:51:09.801Z,1.95
2018-02-05T02:53:38.125Z,1.92
2018-02-05T02:56:06.469Z,1.95
2018-02-05T02:58:34.794Z,1.94
2018-02-05T03:01:03.138Z,1.97
2018-02-05T03:03:31.462Z,1.96
2018-02-05T03:05:59.805Z,1.90
2018-02-05T03:08:28.129Z,2.06
2018-02-05T03:10:56.474Z,1.91
2018-02-05T03:13:24.798Z,1.99
2018-02-05T03:15:53.141Z,1.95
2018-02-05T03:18:21.469Z,1.94
2018-02-05T03:20:49.817Z,1.92
2018-02-05T03:23:18.144Z,1.96
2018-02-05T03:25:46.481Z,1.98
2018-02-05T03:28:14.800Z,1.93
2018-02-05T03:30:43.149Z,1.92
2018-02-05T03:33:11.473Z,1.93
2018-02-05T03:35:39.816Z,1.88
2018-02-05T03:38:08.141Z,1.92
2018-02-05T03:40:36.489Z,1.94
2018-02-05T03:43:04.809Z,1.89
2018-02-05T03:45:33.137Z,1.95
2018-02-05T03:48:01.472Z,1.84
2018-02-05T03:50:29.792Z,1.77
2018-02-05T03:52:58.137Z,1.82
2018-02-05T03:55:26.461Z,1.84
2018-02-05T03:57:54.805Z,1.88
2018-02-05T04:00:23.129Z,1.82
2018-02-05T04:02:51.477Z,1.80
2018-02-05T04:05:19.797Z,1.88
2018-02-05T04:07:48.149Z,1.78
2018-02-05T04:10:16.474Z,1.75
2018-02-05T04:12:44.817Z,1.76
2018-02-05T04:15:13.141Z,1.77
2018-02-05T04:17:41.489Z,1.82
2018-02-05T04:20:09.810Z,1.76
2018-02-05T04:22:38.153Z,1.74
2018-02-05T04:25:06.473Z,1.79
2018-02-05T04:27:34.818Z,1.72
2018-02-05T04:30:03.143Z,1.76
2018-02-05T04:32:31.498Z,1.72
2018-02-05T04:34:59.865Z,1.75
2018-02-05T04:37:28.209Z,1.74
2018-02-05T04:39:56.531Z,1.76
2018-02-05T04:42:24.873Z,1.76
2018-02-05T04:44:53.201Z,1.80
2018-02-05T04:47:21.540Z,1.74
2018-02-05T04:49:49.866Z,1.77
2018-02-05T04:52:18.209Z,1.74
2018-02-05T04:54:46.533Z,1.71
2018-02-05T04:57:14.879Z,1.72
2018-02-05T04:59:43.197Z,1.78
2018-02-05T05:02:11.541Z,1.77
2018-02-05T05:04:39.861Z,1.72
2018-02-05T05:07:13.873Z,1.67
2018-02-05T05:09:42.198Z,1.70
2018-02-05T05:12:10.540Z,1.72
2018-02-05T05:14:38.866Z,1.68
2018-02-05T05:17:07.209Z,1.84
2018-02-05T05:19:35.533Z,1.70
2018-02-05T05:22:03.877Z,1.71
2018-02-05T05:24:32.201Z,1.73
2018-02-05T05:27:00.545Z,1.73
2018-02-05T05:29:28.873Z,1.70
2018-02-05T05:31:57.217Z,1.72
2018-02-05T05:34:25.544Z,1.68
2018-02-05T05:36:53.885Z,1.64
2018-02-05T05:39:22.205Z,1.68
2018-02-05T05:41:50.553Z,1.63
2018-02-05T05:44:18.878Z,1.61
2018-02-05T05:46:47.509Z,1.70
2018-02-05T05:49:15.860Z,1.64
2018-02-05T05:51:46.229Z,1.55
2018-02-05T05:54:14.833Z,1.67
2018-02-05T05:56:43.153Z,1.60
2018-02-05T05:59:11.502Z,1.50
2018-02-05T06:01:39.921Z,1.50
2018-02-05T06:04:08.261Z,1.54
2018-02-05T06:06:36.581Z,1.51
2018-02-05T06:09:04.945Z,1.51
2018-02-05T06:11:33.273Z,1.45
2018-02-05T06:14:01.625Z,1.48
2018-02-05T06:16:29.961Z,1.42
2018-02-05T06:18:58.325Z,1.64
2018-02-05T06:21:26.650Z,1.54
2018-02-05T06:23:54.993Z,1.46
2018-02-05T06:26:23.390Z,1.50
2018-02-05T06:28:51.717Z,1.43
2018-02-05T06:31:20.041Z,1.43
2018-02-05T06:33:48.404Z,1.28
2018-02-05T06:36:16.733Z,1.34
2018-02-05T06:38:45.116Z,1.27
2018-02-05T06:41:13.645Z,1.32
2018-02-05T06:43:42.017Z,1.29
2018-02-05T06:46:10.357Z,1.28
2018-02-05T06:48:38.690Z,1.24
2018-02-05T06:51:18.757Z,1.24
2018-02-05T06:53:58.869Z,1.28
2018-02-05T06:56:27.196Z,1.30
2018-02-05T06:58:55.545Z,1.21
2018-02-05T07:01:23.878Z,1.30
2018-02-05T07:03:52.229Z,1.28
2018-02-05T07:06:20.553Z,1.33
2018-02-05T07:08:48.910Z,1.32
2018-02-05T07:11:17.295Z,1.30
2018-02-05T07:13:45.642Z,1.32
2018-02-05T07:16:13.977Z,1.37
2018-02-05T07:18:42.356Z,1.44
2018-02-05T07:21:10.728Z,1.46
2018-02-05T07:23:39.054Z,1.42
2018-02-05T07:26:07.391Z,1.42
2018-02-05T07:28:35.733Z,1.47
2018-02-05T07:31:04.061Z,1.50
2018-02-05T07:33:32.413Z,1.64
2018-02-05T07:36:00.737Z,1.68
2018-02-05T07:38:29.089Z,1.61
2018-02-05T07:40:58.392Z,1.55
2018-02-05T07:43:27.326Z,1.47
2018-02-05T07:45:55.859Z,1.55
2018-02-05T07:48:24.630Z,1.68
2018-02-05T07:50:53.183Z,1.75
2018-02-05T07:53:21.603Z,1.72
2018-02-05T07:55:50.436Z,1.82
2018-02-05T07:58:19.497Z,1.74
2018-02-05T08:00:48.229Z,1.82
2018-02-05T08:03:16.895Z,1.97
2018-02-05T08:05:45.534Z,2.12
2018-02-05T08:08:14.329Z,1.91
2018-02-05T08:10:42.994Z,1.77
2018-02-05T08:13:11.724Z,1.77
2018-02-05T08:15:40.919Z,1.69
2018-02-05T08:18:09.676Z,1.52
2018-02-05T08:20:38.938Z,1.62
2018-02-05T08:23:07.621Z,1.42
2018-02-05T08:25:36.391Z,1.40
2018-02-05T08:28:05.330Z,1.42
2018-02-05T08:30:34.710Z,1.49
2018-02-05T08:33:03.498Z,1.35
2018-02-05T08:35:32.273Z,1.32
2018-02-05T08:38:00.669Z,1.41
2018-02-05T08:40:29.293Z,1.45
2018-02-05T08:42:58.234Z,1.46
2018-02-05T08:45:26.972Z,1.60
2018-02-05T08:47:55.670Z,1.44
2018-02-05T08:50:24.439Z,1.48
2018-02-05T08:52:53.250Z,1.40
2018-02-05T08:55:21.717Z,1.49
2018-02-05T08:57:50.339Z,1.46
2018-02-05T09:00:18.993Z,1.42
2018-02-05T09:02:47.686Z,1.40
2018-02-05T09:05:16.403Z,1.41
2018-02-05T09:07:44.998Z,1.49
2018-02-05T09:10:13.557Z,1.36
2018-02-05T09:12:42.239Z,1.44
2018-02-05T09:15:10.988Z,1.41
2018-02-05T09:17:39.618Z,1.42
2018-02-05T09:20:08.458Z,1.41
2018-02-05T09:22:37.187Z,1.44
2018-02-05T09:25:06.745Z,1.49
2018-02-05T09:27:35.415Z,1.51
2018-02-05T09:30:04.066Z,1.49
2018-02-05T09:32:32.786Z,1.54
2018-02-05T09:35:01.606Z,1.54
2018-02-05T09:37:29.949Z,1.62
2018-02-05T09:39:58.297Z,1.68
2018-02-05T09:42:26.630Z,1.65
2018-02-05T09:44:54.974Z,1.62
2018-02-05T09:47:23.497Z,1.67
2018-02-05T09:49:51.846Z,1.61
2018-02-05T09:52:20.178Z,1.62
2018-02-05T09:54:48.525Z,1.69
2018-02-05T09:57:16.853Z,1.57
2018-02-05T09:59:45.201Z,1.64
2018-02-05T10:02:13.534Z,1.62
2018-02-05T10:04:41.881Z,1.65
2018-02-05T10:07:11.134Z,1.90
2018-02-05T10:09:39.478Z,1.74
2018-02-05T10:12:07.806Z,1.73
2018-02-05T10:14:36.161Z,1.66
2018-02-05T10:17:04.493Z,1.67
2018-02-05T10:19:32.844Z,1.78
2018-02-05T10:22:01.166Z,1.70
2018-02-05T10:24:29.513Z,1.69
2018-02-05T10:26:58.657Z,1.77
2018-02-05T10:29:27.001Z,1.73
2018-02-05T10:31:55.329Z,1.69
2018-02-05T10:34:23.653Z,1.66
2018-02-05T10:36:52.001Z,1.86
2018-02-05T10:39:20.329Z,1.87
2018-02-05T10:41:48.681Z,1.88
2018-02-05T10:44:17.009Z,1.78
2018-02-05T10:46:46.419Z,1.73
2018-02-05T10:49:14.743Z,1.89
2018-02-05T10:51:43.098Z,1.83
2018-02-05T10:54:11.437Z,1.78
2018-02-05T10:56:39.785Z,1.86
2018-02-05T10:59:08.114Z,1.73
2018-02-05T11:01:36.457Z,1.74
2018-02-05T11:04:04.781Z,1.80
2018-02-05T11:06:33.129Z,1.83
2018-02-05T11:09:01.461Z,1.76
2018-02-05T11:11:29.809Z,1.69
2018-02-05T11:13:58.133Z,1.86
2018-02-05T11:16:26.486Z,1.82
2018-02-05T11:18:54.817Z,1.97
2018-02-05T11:21:23.169Z,1.88
2018-02-05T11:23:51.493Z,1.83
2018-02-05T11:26:19.849Z,1.87
2018-02-05T11:28:48.249Z,1.94
2018-02-05T11:31:16.613Z,2.12
2018-02-05T11:33:44.942Z,1.98
2018-02-05T11:36:13.329Z,2.02
2018-02-05T11:38:41.616Z,2.11
2018-02-05T11:41:09.973Z,2.06
2018-02-05T11:43:38.325Z,2.06
2018-02-05T11:46:07.678Z,1.99
2018-02-05T11:48:36.002Z,2.09
2018-02-05T11:51:04.349Z,2.37
2018-02-05T11:53:32.673Z,2.57
2018-02-05T11:56:01.021Z,2.46
2018-02-05T11:58:29.350Z,2.30
2018-02-05T12:00:57.698Z,2.28
2018-02-05T12:03:26.027Z,2.26
2018-02-05T12:05:55.218Z,2.28
2018-02-05T12:08:23.560Z,2.19
2018-02-05T12:10:51.916Z,2.25
2018-02-05T12:13:20.280Z,2.31
2018-02-05T12:15:48.620Z,2.19
2018-02-05T12:18:16.937Z,2.17
2018-02-05T12:20:45.280Z,2.11
2018-02-05T12:23:13.609Z,2.11
2018-02-05T12:25:42.817Z,2.08
2018-02-05T12:28:11.153Z,2.12
2018-02-05T12:30:39.507Z,2.11
2018-02-05T12:33:08.783Z,1.97
2018-02-05T12:35:37.117Z,1.92
2018-02-05T12:38:05.441Z,1.97
2018-02-05T12:40:33.764Z,1.94
2018-02-05T12:43:02.119Z,1.87
2018-02-05T12:45:30.440Z,1.81
2018-02-05T12:47:58.793Z,1.97
2018-02-05T12:50:27.125Z,1.96
2018-02-05T12:52:55.469Z,1.98
2018-02-05T12:55:23.797Z,2.14
2018-02-05T12:57:52.149Z,2.19
2018-02-05T13:00:23.417Z,2.02
2018-02-05T13:06:15.257Z,2.32
2018-02-05T13:08:43.599Z,2.24
2018-02-05T13:11:11.928Z,2.17
2018-02-05T13:13:40.258Z,2.14
2018-02-05T13:16:08.606Z,2.02
2018-02-05T13:18:36.937Z,1.97
2018-02-05T13:21:05.384Z,1.99
2018-02-05T13:23:33.693Z,2.08
2018-02-05T13:26:02.021Z,2.09
2018-02-05T13:28:30.369Z,1.96
2018-02-05T13:30:58.698Z,2.04
2018-02-05T13:33:27.057Z,1.95
2018-02-05T13:35:55.381Z,2.05
2018-02-05T13:38:23.734Z,2.12
2018-02-05T13:40:52.058Z,2.07
2018-02-05T13:43:20.406Z,1.94
2018-02-05T13:45:48.729Z,1.97
2018-02-05T13:48:17.077Z,1.95
2018-02-05T13:50:45.405Z,1.86
2018-02-05T13:53:13.758Z,1.96
2018-02-05T13:55:42.648Z,2.04
2018-02-05T13:58:11.007Z,2.08
2018-02-05T14:00:39.325Z,2.19
2018-02-05T14:03:07.677Z,2.36
2018-02-05T14:05:36.006Z,2.20
2018-02-05T14:08:04.480Z,2.21
2018-02-05T14:10:34.472Z,2.20
2018-02-05T14:13:02.870Z,2.30
2018-02-05T14:15:31.284Z,2.02
2018-02-05T14:17:59.640Z,2.15
2018-02-05T14:20:27.953Z,1.97
2018-02-05T14:22:56.310Z,2.08
2018-02-05T14:25:25.302Z,2.08
2018-02-05T14:27:53.594Z,2.14
2018-02-05T14:30:22.984Z,2.22
2018-02-05T14:32:51.421Z,2.32
2018-02-05T14:35:19.751Z,2.23
2018-02-05T14:37:48.316Z,2.26
2018-02-05T14:40:17.468Z,2.26
2018-02-05T14:42:45.820Z,2.25
2018-02-05T14:45:14.411Z,2.18
2018-02-05T14:47:42.757Z,2.29
2018-02-05T14:50:11.101Z,2.33
2018-02-05T14:52:39.580Z,2.33
2018-02-05T14:55:07.901Z,2.40
2018-02-05T14:57:36.355Z,2.47
2018-02-05T15:00:04.694Z,2.36
2018-02-05T15:02:33.324Z,2.35
2018-02-05T15:05:02.250Z,2.28
2018-02-05T15:07:30.616Z,2.25
2018-02-05T15:09:58.949Z,2.30
2018-02-05T15:12:28.224Z,2.38
2018-02-05T15:14:56.808Z,2.22
2018-02-05T15:17:25.162Z,2.18
2018-02-05T15:19:53.526Z,2.26
2018-02-05T15:22:21.877Z,2.11
2018-02-05T15:24:51.090Z,2.12
2018-02-05T15:27:19.488Z,2.03
2018-02-05T15:29:47.856Z,2.02
2018-02-05T15:32:16.343Z,2.03
2018-02-05T15:34:45.326Z,2.04
2018-02-05T15:37:13.737Z,1.91
2018-02-05T15:39:42.085Z,1.88
2018-02-05T15:42:10.443Z,1.85
2018-02-05T15:44:38.797Z,1.79
2018-02-05T15:47:07.257Z,1.86
2018-02-05T15:49:35.589Z,1.69
2018-02-05T15:52:03.954Z,1.80
2018-02-05T15:54:32.310Z,1.81
2018-02-05T15:57:00.765Z,1.93
2018-02-05T15:59:29.110Z,2.00
2018-02-05T16:01:57.432Z,2.06
2018-02-05T16:04:25.826Z,2.12
2018-02-05T16:06:55.404Z,2.07
2018-02-05T16:09:23.757Z,2.18
2018-02-05T16:11:52.085Z,2.26
2018-02-05T16:14:20.433Z,2.36
2018-02-05T16:16:48.765Z,2.39
2018-02-05T16:19:17.112Z,2.54
2018-02-05T16:21:45.452Z,2.47
2018-02-05T16:24:13.782Z,2.55
2018-02-05T16:26:42.104Z,2.56
2018-02-05T16:29:10.478Z,2.32
2018-02-05T16:31:38.817Z,2.22
2018-02-05T16:34:07.593Z,2.18
2018-02-05T16:36:36.016Z,2.19
2018-02-05T16:39:04.361Z,2.20
2018-02-05T16:41:32.706Z,2.31
2018-02-05T16:44:01.085Z,2.27
2018-02-05T16:46:29.475Z,2.38
2018-02-05T16:48:57.849Z,2.34
2018-02-05T16:51:26.189Z,2.24
2018-02-05T16:53:54.665Z,2.34
2018-02-05T16:56:23.014Z,2.26
2018-02-05T16:58:51.369Z,2.14
2018-02-05T17:01:19.688Z,2.24
2018-02-05T17:03:48.028Z,2.12
2018-02-05T17:06:16.358Z,2.01
2018-02-05T17:08:44.708Z,1.94
2018-02-05T17:11:13.040Z,1.91
2018-02-05T17:13:42.546Z,1.80
2018-02-05T17:16:15.723Z,1.59
2018-02-05T17:18:45.764Z,1.58
2018-02-05T17:21:14.102Z,1.46
2018-02-05T17:23:42.458Z,1.56
2018-02-05T17:26:11.738Z,1.67
2018-02-05T17:28:40.134Z,1.80
2018-02-05T17:31:08.469Z,1.76
2018-02-05T17:33:36.829Z,1.58
2018-02-05T17:36:05.165Z,1.76
2018-02-05T17:38:33.545Z,1.72
2018-02-05T17:41:01.911Z,1.61
2018-02-05T17:43:30.257Z,1.56
2018-02-05T17:45:59.570Z,1.57
2018-02-05T17:48:27.893Z,1.65
2018-02-05T17:50:56.247Z,1.64
2018-02-05T17:53:24.640Z,1.69
2018-02-05T17:55:53.962Z,1.63
2018-02-05T17:58:22.387Z,1.66
2018-02-05T18:00:50.733Z,1.54
2018-02-05T18:03:20.352Z,1.58
2018-02-05T18:05:49.693Z,1.55
2018-02-05T18:08:18.021Z,1.44
2018-02-05T18:10:46.391Z,1.39
2018-02-05T18:13:14.714Z,1.50
2018-02-05T18:15:44.043Z,1.46
2018-02-05T18:18:12.361Z,1.48
2018-02-05T18:20:40.734Z,1.40
2018-02-05T18:23:09.058Z,1.46
2018-02-05T18:25:37.425Z,1.44
2018-02-05T18:28:05.765Z,1.47
2018-02-05T18:30:34.158Z,1.39
2018-02-05T18:33:02.491Z,1.47
2018-02-05T18:35:30.920Z,1.67
2018-02-05T18:38:03.984Z,1.70
2018-02-05T18:40:32.328Z,1.64
2018-02-05T18:43:01.453Z,1.61
2018-02-05T18:45:29.806Z,1.69
2018-02-05T18:47:58.137Z,1.50
2018-02-05T18:50:26.489Z,1.56
2018-02-05T18:52:54.818Z,1.64
2018-02-05T18:55:23.158Z,1.72
2018-02-05T18:57:51.477Z,1.63
2018-02-05T19:00:31.660Z,1.76
2018-02-05T19:03:00.006Z,1.70
2018-02-05T19:05:28.526Z,1.67
2018-02-05T19:07:57.048Z,1.68
2018-02-05T19:10:25.405Z,1.64
2018-02-05T19:12:53.746Z,1.61
2018-02-05T19:15:22.101Z,1.73
2018-02-05T19:17:50.425Z,1.64
2018-02-05T19:20:18.777Z,1.82
2018-02-05T19:22:47.168Z,1.61
2018-02-05T19:25:15.534Z,1.79
2018-02-05T19:27:43.882Z,1.59
2018-02-05T19:30:12.234Z,1.56
2018-02-05T19:32:40.585Z,1.43
2018-02-05T19:35:08.949Z,1.36
2018-02-05T19:37:37.349Z,1.50
2018-02-05T19:40:05.699Z,1.53
2018-02-05T19:42:34.034Z,1.92
2018-02-05T19:45:02.378Z,1.84
2018-02-05T19:47:30.709Z,1.69
2018-02-05T19:49:59.062Z,1.55
2018-02-05T19:52:27.389Z,1.42
2018-02-05T19:54:56.693Z,1.29
2018-02-05T19:57:25.011Z,1.18
2018-02-05T19:59:53.353Z,1.39
2018-02-05T20:02:21.681Z,1.29
2018-02-05T20:04:50.041Z,1.25
2018-02-05T20:07:18.450Z,1.32
2018-02-05T20:09:46.780Z,1.22
2018-02-05T20:12:15.129Z,1.12
2018-02-05T20:14:43.468Z,1.03
2018-02-05T20:17:11.808Z,0.98
2018-02-05T20:19:40.138Z,1.11
2018-02-05T20:22:08.497Z,1.14
2018-02-05T20:24:36.821Z,0.96
2018-02-05T20:27:05.173Z,1.14
2018-02-05T20:29:33.501Z,1.01
2018-02-05T20:32:01.862Z,0.99
2018-02-05T20:34:30.191Z,1.03
2018-02-05T20:36:58.541Z,0.96
2018-02-05T20:39:26.865Z,0.86
2018-02-05T20:41:55.244Z,1.07
2018-02-05T20:44:23.572Z,0.84
2018-02-05T20:46:52.808Z,0.78
2018-02-05T20:49:21.137Z,0.89
2018-02-05T20:51:49.742Z,0.92
2018-02-05T20:54:18.065Z,0.88
2018-02-05T20:56:46.434Z,0.80
2018-02-05T20:59:14.802Z,0.94
2018-02-05T21:01:43.186Z,0.98
2018-02-05T21:04:11.517Z,1.03
2018-02-05T21:06:40.661Z,0.99
2018-02-05T21:09:08.994Z,1.05
2018-02-05T21:11:37.337Z,1.08
2018-02-05T21:14:05.674Z,1.02
2018-02-05T21:16:34.025Z,0.80
2018-02-05T21:19:02.357Z,0.95
2018-02-05T21:21:30.701Z,0.89
2018-02-05T21:23:59.026Z,0.82
2018-02-05T21:26:28.157Z,0.90
2018-02-05T21:28:56.486Z,0.88
2018-02-05T21:31:24.861Z,0.69
2018-02-05T21:33:53.339Z,0.86
2018-02-05T21:36:21.705Z,1.00
2018-02-05T21:38:50.644Z,0.99
2018-02-05T21:41:19.793Z,1.01
2018-02-05T21:43:48.354Z,0.85
2018-02-05T21:46:16.725Z,0.91
2018-02-05T21:48:45.641Z,0.78
2018-02-05T21:51:13.982Z,0.86
2018-02-05T21:53:42.311Z,0.81
2018-02-05T21:56:10.917Z,0.64
2018-02-05T21:58:39.312Z,0.64
2018-02-05T22:01:07.653Z,0.66
2018-02-05T22:03:35.978Z,0.57
2018-02-05T22:06:04.326Z,0.51
2018-02-05T22:08:32.710Z,0.45
2018-02-05T22:11:01.009Z,0.51
2018-02-05T22:13:29.343Z,0.46
2018-02-05T22:15:57.671Z,0.54
2018-02-05T22:18:26.014Z,0.48
2018-02-05T22:20:54.337Z,0.56
2018-02-05T22:23:22.683Z,0.51
2018-02-05T22:25:51.901Z,0.38
2018-02-05T22:28:20.248Z,0.32
2018-02-05T22:30:48.573Z,0.16
2018-02-05T22:33:16.931Z,0.21
2018-02-05T22:35:46.217Z,0.06
2018-02-05T22:38:14.565Z,0.14
2018-02-05T22:40:42.888Z,0.12
2018-02-05T22:43:11.238Z,0.16
2018-02-05T22:45:39.561Z,0.23
2018-02-05T22:48:07.909Z,0.12
2018-02-05T22:50:36.233Z,-0.01
2018-02-05T22:53:04.583Z,0.09
2018-02-05T22:55:32.901Z,0.15
2018-02-05T22:58:01.284Z,0.08
2018-02-05T23:00:29.608Z,0.20
2018-02-05T23:02:57.953Z,0.24
2018-02-05T23:05:26.278Z,0.17
2018-02-05T23:07:54.649Z,0.10
2018-02-05T23:10:22.950Z,0.00
2018-02-05T23:12:51.284Z,0.08
2018-02-05T23:15:19.605Z,0.19
2018-02-05T23:17:47.949Z,0.24
2018-02-05T23:20:16.273Z,0.28
2018-02-05T23:22:44.613Z,0.11
2018-02-05T23:25:13.124Z,0.25
2018-02-05T23:27:41.469Z,0.24
2018-02-05T23:30:09.894Z,0.23
2018-02-05T23:32:38.217Z,0.19
2018-02-05T23:35:06.545Z,0.28
2018-02-05T23:37:34.889Z,0.19
2018-02-05T23:40:03.214Z,0.13
2018-02-05T23:42:31.561Z,0.23
2018-02-05T23:44:59.890Z,0.05
2018-02-05T23:47:28.233Z,-0.09
2018-02-05T23:49:56.602Z,0.14
2018-02-05T23:52:24.929Z,0.23
2018-02-05T23:54:53.257Z,0.23
2018-02-05T23:57:21.605Z,0.28
2018-02-05T23:59:49.921Z,0.39
